KAUW

Wausau Downtown Airport

Wausau, Wisconsin, USA
KAUW 231722Z 2318/2418 18003KT P6SM FEW250 FM240100 VRB03KT P6SM SCT250 FM241100 35003KT P6SM SCT120
Issued Valid From Valid To
Apr-23 @ 17:22 UTC
(6 hours ago)
Apr-23 @ 18:00 UTC
(5 hours ago)
Apr-24 @ 18:00 UTC
(in 19 hours)
Apr-23 @ 18:00 to Apr-24 @ 01:00
KAUW 231722Z 2318/2418 18003KT P6SM FEW250
Wind Visibility Clouds
180° at 3 knots Greater than 6 miles
  • Few at 25,000' AGL
From Apr-24 @ 01:00 to Apr-24 @ 11:00
FM240100 VRB03KT P6SM SCT250
Wind Visibility Clouds
Variable at 3 knots Greater than 6 miles
  • Scattered at 25,000' AGL
From Apr-24 @ 11:00 to Apr-24 @ 18:00
FM241100 35003KT P6SM SCT120
Wind Visibility Clouds
350° at 3 knots Greater than 6 miles
  • Scattered at 12,000' AGL
KAUW 231722Z 2318/2418 18003KT P6SM FEW250 FM240100 VRB03KT P6SM SCT250 FM241100 35003KT P6SM SCT120
Issued Apr-23 @ 17:22 UTC
(6 hours ago)
Valid From Apr-23 @ 18:00 UTC
(5 hours ago)
Valid To Apr-24 @ 18:00 UTC
(in 19 hours)
Apr-23 @ 18:00 - Apr-24 @ 01:00
Wind Visibility
180° at 3 knots Greater than 6 miles
Clouds
  • Few at 25,000' AGL
From Apr-24 @ 01:00 - Apr-24 @ 11:00
Wind Visibility
Variable at 3 knots Greater than 6 miles
Clouds
  • Scattered at 25,000' AGL
From Apr-24 @ 11:00 - Apr-24 @ 18:00
Wind Visibility
350° at 3 knots Greater than 6 miles
Clouds
  • Scattered at 12,000' AGL